createdAt,value
2022-10-17T00:00:55.613Z,5.05
2022-10-17T00:01:58.586Z,4.95
2022-10-17T00:03:01.617Z,5.37
2022-10-17T00:04:04.656Z,4.72
2022-10-17T00:05:07.887Z,5.03
2022-10-17T00:06:13.166Z,5.53
2022-10-17T00:07:16.008Z,4.47
2022-10-17T00:08:19.539Z,4.80
2022-10-17T00:09:22.427Z,4.82
2022-10-17T00:10:25.279Z,4.80
2022-10-17T00:11:28.370Z,4.12
2022-10-17T00:12:31.280Z,4.30
2022-10-17T00:13:34.540Z,4.85
2022-10-17T00:14:37.876Z,5.00
2022-10-17T00:15:44.485Z,4.45
2022-10-17T00:16:47.408Z,4.50
2022-10-17T00:17:50.559Z,4.50
2022-10-17T00:18:53.827Z,4.72
2022-10-17T00:19:58.856Z,4.30
2022-10-17T00:21:01.671Z,4.18
2022-10-17T00:22:04.585Z,5.07
2022-10-17T00:23:07.621Z,4.95
2022-10-17T00:24:10.613Z,4.20
2022-10-17T00:25:13.831Z,4.53
2022-10-17T00:26:17.618Z,4.45
2022-10-17T00:27:20.501Z,4.82
2022-10-17T00:28:23.646Z,4.70
2022-10-17T00:29:26.661Z,4.93
2022-10-17T00:30:29.675Z,4.53
2022-10-17T00:31:32.612Z,4.55
2022-10-17T00:32:35.608Z,4.57
2022-10-17T00:33:41.118Z,4.43
2022-10-17T00:34:44.188Z,4.28
2022-10-17T00:35:47.219Z,4.65
2022-10-17T00:36:50.044Z,4.22
2022-10-17T00:37:52.855Z,4.60
2022-10-17T00:38:58.428Z,4.82
2022-10-17T00:40:01.409Z,4.47
2022-10-17T00:41:04.493Z,4.80
2022-10-17T00:42:07.341Z,4.37
2022-10-17T00:43:18.504Z,4.57
2022-10-17T00:44:30.441Z,4.90
2022-10-17T00:45:33.251Z,4.32
2022-10-17T00:46:38.476Z,4.45
2022-10-17T00:47:43.498Z,4.15
2022-10-17T00:48:48.219Z,4.82
2022-10-17T00:49:51.224Z,4.93
2022-10-17T00:50:54.308Z,4.55
2022-10-17T00:52:01.972Z,4.40
2022-10-17T00:53:07.142Z,4.28
2022-10-17T00:54:11.705Z,4.62
2022-10-17T00:55:20.266Z,4.50
2022-10-17T00:56:23.625Z,4.62
2022-10-17T00:57:31.916Z,4.60
2022-10-17T00:58:35.023Z,4.35
2022-10-17T00:59:40.623Z,4.95
2022-10-17T01:00:45.021Z,4.75
2022-10-17T01:02:02.260Z,4.68
2022-10-17T01:03:05.101Z,4.55
2022-10-17T01:04:08.177Z,4.62
2022-10-17T01:05:12.130Z,5.57
2022-10-17T01:06:15.219Z,4.50
2022-10-17T01:07:18.052Z,4.95
2022-10-17T01:08:21.264Z,5.03
2022-10-17T01:09:25.425Z,5.10
2022-10-17T01:10:35.290Z,4.85
2022-10-17T01:11:38.096Z,4.75
2022-10-17T01:13:11.812Z,4.60
2022-10-17T01:14:56.300Z,4.75
2022-10-17T01:16:09.744Z,4.43
2022-10-17T01:17:44.663Z,4.65
2022-10-17T01:19:05.939Z,4.57
2022-10-17T01:20:42.624Z,4.70
2022-10-17T01:21:58.530Z,4.20
2022-10-17T01:23:31.974Z,4.72
2022-10-17T01:24:53.053Z,4.40
2022-10-17T01:26:08.173Z,4.40
2022-10-17T01:27:10.901Z,5.00
2022-10-17T01:28:19.831Z,4.75
2022-10-17T01:30:13.612Z,4.87
2022-10-17T01:31:20.732Z,4.70
2022-10-17T01:32:32.973Z,4.97
2022-10-17T01:33:41.499Z,4.80
2022-10-17T01:34:54.343Z,4.93
2022-10-17T01:36:04.803Z,5.12
2022-10-17T01:37:28.255Z,4.78
2022-10-17T01:38:43.134Z,4.80
2022-10-17T01:39:50.893Z,4.37
2022-10-17T01:41:07.976Z,4.87
2022-10-17T01:42:31.067Z,4.90
2022-10-17T01:43:40.334Z,5.05
2022-10-17T01:44:56.752Z,4.62
2022-10-17T01:46:06.417Z,5.07
2022-10-17T01:47:15.371Z,5.10
2022-10-17T01:48:23.017Z,4.97
2022-10-17T01:49:30.011Z,4.65
2022-10-17T01:50:37.615Z,5.12
2022-10-17T01:51:49.257Z,5.37
2022-10-17T01:54:05.538Z,4.87
2022-10-17T01:55:25.977Z,4.85
2022-10-17T01:56:31.901Z,5.47
2022-10-17T01:57:40.216Z,5.30
2022-10-17T01:58:59.294Z,6.22
2022-10-17T02:00:06.571Z,5.62
2022-10-17T02:01:12.163Z,5.00
2022-10-17T02:02:17.893Z,5.45
2022-10-17T02:03:22.293Z,5.72
2022-10-17T02:04:26.537Z,5.68
2022-10-17T02:05:33.932Z,5.75
2022-10-17T02:06:38.165Z,5.28
2022-10-17T02:07:43.852Z,5.12
2022-10-17T02:08:49.145Z,5.85
2022-10-17T02:09:52.099Z,5.05
2022-10-17T02:11:22.552Z,5.20
2022-10-17T02:12:59.699Z,5.53
2022-10-17T02:14:39.182Z,5.40
2022-10-17T02:15:56.540Z,5.97
2022-10-17T02:17:07.362Z,6.05
2022-10-17T02:18:10.698Z,6.03
2022-10-17T02:19:34.765Z,6.55
2022-10-17T02:20:52.916Z,6.15
2022-10-17T02:22:12.198Z,6.45
2022-10-17T02:23:23.942Z,7.75
2022-10-17T02:24:48.250Z,7.03
2022-10-17T02:26:12.484Z,6.53
2022-10-17T02:27:45.456Z,7.00
2022-10-17T02:29:07.474Z,7.18
2022-10-17T02:30:21.786Z,7.00
2022-10-17T02:31:31.614Z,6.25
2022-10-17T02:32:45.412Z,6.65
2022-10-17T02:34:00.547Z,7.10
2022-10-17T02:35:07.326Z,6.87
2022-10-17T02:36:16.521Z,7.47
2022-10-17T02:37:24.956Z,6.93
2022-10-17T02:38:30.636Z,7.12
2022-10-17T02:39:36.677Z,7.28
2022-10-17T02:40:41.125Z,7.78
2022-10-17T02:41:46.340Z,8.23
2022-10-17T02:42:51.778Z,8.23
2022-10-17T02:43:57.624Z,8.48
2022-10-17T02:45:03.778Z,9.05
2022-10-17T02:46:08.291Z,8.80
2022-10-17T02:47:28.104Z,8.68
2022-10-17T02:48:44.491Z,8.35
2022-10-17T02:50:00.026Z,9.15
2022-10-17T02:51:08.063Z,8.48
2022-10-17T02:52:15.068Z,8.80
2022-10-17T02:53:33.532Z,8.60
2022-10-17T02:54:54.652Z,8.85
2022-10-17T02:56:03.213Z,8.73
2022-10-17T02:57:27.903Z,8.70
2022-10-17T02:58:37.968Z,8.73
2022-10-17T02:59:42.860Z,8.00
2022-10-17T03:00:50.119Z,9.38
2022-10-17T03:01:53.454Z,9.18
2022-10-17T03:02:59.973Z,9.93
2022-10-17T03:04:14.985Z,9.75
2022-10-17T03:05:22.973Z,10.25
2022-10-17T03:06:25.929Z,11.27
2022-10-17T03:07:30.173Z,10.68
2022-10-17T03:08:33.404Z,10.75
2022-10-17T03:09:40.094Z,10.60
2022-10-17T03:10:42.970Z,10.90
2022-10-17T03:11:45.771Z,9.77
2022-10-17T03:12:48.895Z,9.65
2022-10-17T03:13:51.693Z,9.38
2022-10-17T03:14:54.493Z,9.38
2022-10-17T03:15:57.982Z,9.30
2022-10-17T03:17:00.934Z,9.48
2022-10-17T03:18:04.390Z,8.60
2022-10-17T03:19:08.059Z,9.00
2022-10-17T03:20:11.341Z,7.93
2022-10-17T03:21:15.183Z,7.55
2022-10-17T03:22:18.063Z,7.57
2022-10-17T03:23:20.941Z,7.75
2022-10-17T03:24:23.859Z,8.10
2022-10-17T03:25:26.742Z,7.60
2022-10-17T03:26:29.929Z,7.87
2022-10-17T03:27:33.327Z,7.18
2022-10-17T03:28:36.687Z,7.25
2022-10-17T03:29:39.615Z,7.20
2022-10-17T03:30:42.414Z,7.80
2022-10-17T03:31:45.265Z,7.53
2022-10-17T03:32:48.035Z,6.65
2022-10-17T03:33:50.869Z,8.00
2022-10-17T03:34:57.183Z,7.95
2022-10-17T03:36:00.144Z,7.82
2022-10-17T03:37:03.221Z,7.60
2022-10-17T03:38:06.157Z,8.68
2022-10-17T03:39:08.991Z,7.57
2022-10-17T03:40:12.025Z,7.00
2022-10-17T03:41:15.278Z,7.05
2022-10-17T03:42:18.201Z,7.25
2022-10-17T03:43:21.077Z,7.60
2022-10-17T03:44:23.866Z,7.12
2022-10-17T03:45:26.703Z,7.22
2022-10-17T03:46:29.568Z,6.85
2022-10-17T03:47:32.732Z,6.75
2022-10-17T03:48:38.236Z,6.50
2022-10-17T03:49:41.102Z,6.35
2022-10-17T03:50:44.007Z,6.75
2022-10-17T03:51:46.936Z,6.10
2022-10-17T03:52:50.399Z,6.70
2022-10-17T03:53:53.383Z,6.37
2022-10-17T03:54:56.253Z,6.35
2022-10-17T03:56:13.420Z,6.22
2022-10-17T03:57:16.331Z,6.25
2022-10-17T03:58:19.753Z,6.53
2022-10-17T03:59:22.588Z,6.40
2022-10-17T04:00:25.488Z,6.50
2022-10-17T04:01:28.502Z,6.37
2022-10-17T04:02:31.583Z,6.22
2022-10-17T04:03:34.435Z,5.85
2022-10-17T04:04:37.227Z,6.22
2022-10-17T04:05:40.092Z,5.28
2022-10-17T04:06:42.846Z,6.47
2022-10-17T04:07:45.884Z,6.20
2022-10-17T04:08:49.003Z,6.12
2022-10-17T04:09:51.694Z,6.10
2022-10-17T04:11:01.831Z,6.37
2022-10-17T04:12:04.726Z,6.18
2022-10-17T04:13:07.574Z,6.12
2022-10-17T04:14:14.005Z,6.43
2022-10-17T04:15:18.118Z,6.10
2022-10-17T04:16:21.505Z,5.75
2022-10-17T04:17:24.573Z,6.40
2022-10-17T04:18:27.494Z,5.75
2022-10-17T04:19:32.199Z,6.15
2022-10-17T04:20:35.770Z,5.72
2022-10-17T04:21:38.889Z,6.18
2022-10-17T04:22:42.126Z,5.50
2022-10-17T04:23:44.950Z,5.37
2022-10-17T04:24:47.813Z,5.62
2022-10-17T04:25:50.639Z,5.43
2022-10-17T04:26:55.029Z,5.87
2022-10-17T04:28:01.192Z,5.78
2022-10-17T04:29:04.071Z,5.60
2022-10-17T04:30:07.534Z,5.43
2022-10-17T04:31:14.494Z,4.95
2022-10-17T04:32:17.600Z,5.93
2022-10-17T04:33:20.281Z,5.50
2022-10-17T04:34:23.137Z,6.05
2022-10-17T04:35:25.945Z,5.55
2022-10-17T04:36:28.766Z,5.57
2022-10-17T04:37:31.612Z,5.60
2022-10-17T04:38:35.037Z,4.95
2022-10-17T04:39:41.117Z,5.60
2022-10-17T04:40:43.971Z,5.20
2022-10-17T04:41:47.168Z,5.00
2022-10-17T04:42:50.009Z,5.10
2022-10-17T04:43:52.784Z,5.45
2022-10-17T04:44:55.586Z,5.28
2022-10-17T04:45:59.710Z,5.80
2022-10-17T04:47:02.691Z,6.20
2022-10-17T04:48:05.758Z,5.43
2022-10-17T04:49:09.443Z,5.60
2022-10-17T04:50:12.449Z,6.00
2022-10-17T04:51:18.828Z,6.28
2022-10-17T04:52:23.725Z,5.82
2022-10-17T04:53:27.344Z,5.87
2022-10-17T04:54:30.261Z,5.75
2022-10-17T04:55:38.386Z,5.28
2022-10-17T04:56:41.402Z,5.10
2022-10-17T04:57:44.381Z,5.57
2022-10-17T04:58:47.775Z,5.62
2022-10-17T04:59:51.409Z,5.53
2022-10-17T05:00:54.238Z,4.95
2022-10-17T05:01:57.082Z,5.32
2022-10-17T05:02:59.868Z,5.75
2022-10-17T05:04:02.804Z,4.85
2022-10-17T05:05:06.189Z,5.53
2022-10-17T05:06:14.535Z,6.20
2022-10-17T05:07:17.693Z,5.50
2022-10-17T05:08:20.620Z,5.28
2022-10-17T05:09:23.556Z,5.87
2022-10-17T05:10:26.379Z,5.20
2022-10-17T05:11:30.322Z,5.60
2022-10-17T05:12:33.283Z,5.47
2022-10-17T05:13:36.056Z,5.57
2022-10-17T05:14:38.834Z,5.82
2022-10-17T05:15:41.790Z,5.00
2022-10-17T05:16:44.607Z,5.55
2022-10-17T05:17:47.573Z,5.68
2022-10-17T05:18:53.067Z,5.00
2022-10-17T05:19:56.225Z,5.25
2022-10-17T05:20:59.122Z,5.28
2022-10-17T05:22:02.102Z,4.95
2022-10-17T05:23:04.967Z,4.80
2022-10-17T05:24:11.617Z,5.10
2022-10-17T05:25:14.522Z,5.90
2022-10-17T05:26:17.977Z,5.07
2022-10-17T05:27:20.867Z,5.95
2022-10-17T05:28:25.068Z,5.00
2022-10-17T05:29:28.080Z,5.00
2022-10-17T05:30:35.121Z,5.03
2022-10-17T05:31:40.709Z,5.10
2022-10-17T05:32:43.468Z,5.40
2022-10-17T05:33:46.421Z,5.03
2022-10-17T05:34:49.301Z,5.37
2022-10-17T05:35:52.181Z,5.68
2022-10-17T05:36:55.082Z,5.03
2022-10-17T05:38:00.235Z,4.85
2022-10-17T05:39:03.446Z,5.50
2022-10-17T05:40:10.072Z,4.82
2022-10-17T05:41:12.811Z,5.15
2022-10-17T05:42:15.701Z,4.80
2022-10-17T05:43:18.817Z,5.43
2022-10-17T05:44:21.576Z,4.95
2022-10-17T05:45:24.379Z,5.37
2022-10-17T05:46:27.293Z,5.12
2022-10-17T05:47:30.176Z,5.12
2022-10-17T05:48:35.029Z,5.30
2022-10-17T05:49:48.333Z,5.50
2022-10-17T05:51:09.530Z,5.30
2022-10-17T05:52:12.298Z,5.40
2022-10-17T05:53:15.736Z,5.12
2022-10-17T05:54:18.661Z,4.78
2022-10-17T05:55:21.836Z,5.22
2022-10-17T05:56:24.654Z,5.18
2022-10-17T05:57:27.739Z,5.00
2022-10-17T05:58:48.793Z,6.47
2022-10-17T06:01:00.052Z,4.82
2022-10-17T06:02:03.102Z,5.47
2022-10-17T06:03:05.846Z,5.37
2022-10-17T06:04:08.805Z,4.90
2022-10-17T06:05:12.095Z,4.97
2022-10-17T06:06:15.915Z,5.50
2022-10-17T06:07:19.091Z,4.87
2022-10-17T06:08:22.466Z,5.10
2022-10-17T06:09:25.376Z,5.18
2022-10-17T06:10:28.217Z,5.62
2022-10-17T06:11:31.186Z,5.03
2022-10-17T06:12:34.125Z,5.60
2022-10-17T06:13:37.032Z,4.95
2022-10-17T06:14:39.917Z,5.03
2022-10-17T06:15:43.002Z,5.35
2022-10-17T06:16:45.878Z,5.22
2022-10-17T06:17:48.704Z,5.12
2022-10-17T06:18:51.899Z,5.00
2022-10-17T06:19:54.774Z,5.25
2022-10-17T06:21:09.108Z,5.37
2022-10-17T06:22:12.372Z,4.80
2022-10-17T06:23:17.180Z,5.15
2022-10-17T06:24:20.041Z,5.30
2022-10-17T06:25:22.852Z,5.53
2022-10-17T06:26:25.676Z,5.60
2022-10-17T06:27:28.529Z,5.18
2022-10-17T06:28:31.960Z,5.20
2022-10-17T06:29:34.810Z,6.07
2022-10-17T06:30:41.645Z,6.03
2022-10-17T06:31:44.541Z,5.45
2022-10-17T06:32:47.683Z,5.70
2022-10-17T06:33:50.523Z,6.05
2022-10-17T06:34:53.497Z,5.72
2022-10-17T06:35:57.001Z,5.95
2022-10-17T06:36:59.906Z,5.80
2022-10-17T06:38:08.210Z,6.05
2022-10-17T06:39:11.049Z,5.85
2022-10-17T06:40:16.142Z,5.57
2022-10-17T06:41:19.596Z,5.90
2022-10-17T06:42:22.496Z,6.37
2022-10-17T06:43:27.994Z,6.10
2022-10-17T06:44:32.154Z,5.80
2022-10-17T06:45:35.039Z,6.07
2022-10-17T06:46:41.264Z,6.37
2022-10-17T06:47:44.005Z,5.75
2022-10-17T06:48:46.886Z,5.68
2022-10-17T06:49:49.690Z,5.70
2022-10-17T06:50:52.519Z,5.75
2022-10-17T06:51:55.708Z,5.93
2022-10-17T06:52:58.686Z,5.90
2022-10-17T06:54:01.586Z,5.75
2022-10-17T06:55:08.190Z,6.22
2022-10-17T06:56:11.365Z,6.28
2022-10-17T06:57:14.188Z,6.97
2022-10-17T06:58:17.249Z,6.72
2022-10-17T06:59:23.188Z,6.60
2022-10-17T07:00:27.102Z,7.10
2022-10-17T07:01:31.501Z,6.70
2022-10-17T07:02:34.884Z,6.95
2022-10-17T07:03:37.916Z,6.85
2022-10-17T07:04:40.762Z,6.85
2022-10-17T07:05:43.711Z,6.50
2022-10-17T07:06:46.722Z,7.32
2022-10-17T07:07:51.040Z,7.00
2022-10-17T07:08:55.940Z,6.80
2022-10-17T07:09:59.444Z,6.53
2022-10-17T07:11:13.011Z,6.57
2022-10-17T07:12:15.931Z,6.40
2022-10-17T07:13:19.903Z,7.07
2022-10-17T07:14:27.030Z,6.80
2022-10-17T07:15:29.932Z,6.22
2022-10-17T07:16:32.866Z,6.28
2022-10-17T07:17:35.810Z,5.97
2022-10-17T07:18:39.024Z,5.75
2022-10-17T07:19:43.657Z,5.80
2022-10-17T07:20:54.006Z,5.53
2022-10-17T07:21:57.074Z,5.62
2022-10-17T07:23:00.100Z,5.30
2022-10-17T07:24:03.081Z,5.72
2022-10-17T07:25:06.592Z,4.93
2022-10-17T07:26:13.200Z,5.07
2022-10-17T07:27:15.980Z,5.22
2022-10-17T07:28:19.638Z,5.35
2022-10-17T07:29:22.590Z,6.05
2022-10-17T07:30:25.733Z,5.70
2022-10-17T07:31:28.674Z,5.37
2022-10-17T07:32:32.062Z,6.37
2022-10-17T07:33:35.480Z,6.32
2022-10-17T07:34:38.422Z,5.90
2022-10-17T07:35:41.474Z,5.05
2022-10-17T07:36:44.258Z,5.45
2022-10-17T07:37:47.355Z,5.32
2022-10-17T07:38:50.220Z,5.68
2022-10-17T07:39:53.012Z,5.78
2022-10-17T07:41:00.893Z,5.90
2022-10-17T07:42:03.925Z,5.90
2022-10-17T07:43:06.731Z,6.07
2022-10-17T07:44:09.612Z,5.60
2022-10-17T07:45:12.306Z,5.18
2022-10-17T07:46:15.698Z,5.87
2022-10-17T07:47:18.840Z,6.05
2022-10-17T07:48:23.414Z,7.50
2022-10-17T07:49:26.145Z,6.25
2022-10-17T07:50:29.565Z,6.32
2022-10-17T07:51:32.661Z,6.65
2022-10-17T07:52:36.154Z,5.75
2022-10-17T07:53:42.655Z,6.37
2022-10-17T07:54:48.015Z,5.35
2022-10-17T07:55:51.676Z,4.87
2022-10-17T07:56:54.547Z,5.60
2022-10-17T07:58:00.624Z,5.87
2022-10-17T07:59:05.342Z,6.18
2022-10-17T08:00:11.902Z,5.93
2022-10-17T08:01:15.821Z,6.22
2022-10-17T08:02:23.853Z,6.47
2022-10-17T08:03:26.601Z,5.93
2022-10-17T08:04:29.948Z,6.43
2022-10-17T08:05:38.097Z,6.07
2022-10-17T08:06:40.976Z,6.90
2022-10-17T08:07:44.085Z,6.35
2022-10-17T08:08:46.933Z,6.45
2022-10-17T08:09:53.286Z,6.37
2022-10-17T08:11:01.739Z,6.47
2022-10-17T08:12:04.791Z,6.68
2022-10-17T08:13:07.789Z,6.75
2022-10-17T08:14:11.688Z,5.55
2022-10-17T08:15:14.569Z,5.78
2022-10-17T08:16:18.245Z,5.12
2022-10-17T08:17:21.997Z,6.43
2022-10-17T08:18:27.913Z,5.75
2022-10-17T08:19:30.736Z,6.07
2022-10-17T08:20:33.538Z,6.82
2022-10-17T08:21:36.694Z,6.35
2022-10-17T08:22:39.904Z,5.82
2022-10-17T08:23:42.857Z,5.85
2022-10-17T08:24:46.531Z,5.70
2022-10-17T08:25:49.394Z,5.53
2022-10-17T08:26:53.570Z,5.18
2022-10-17T08:28:01.397Z,5.35
2022-10-17T08:29:04.456Z,6.05
2022-10-17T08:30:08.043Z,5.97
2022-10-17T08:31:14.516Z,5.15
2022-10-17T08:32:17.314Z,4.80
2022-10-17T08:33:24.255Z,4.72
2022-10-17T08:34:27.023Z,4.55
2022-10-17T08:35:29.995Z,4.22
2022-10-17T08:36:32.819Z,4.43
2022-10-17T08:37:37.260Z,4.53
2022-10-17T08:38:43.705Z,4.50
2022-10-17T08:39:46.885Z,4.65
2022-10-17T08:40:49.977Z,4.43
2022-10-17T08:42:10.882Z,4.15
2022-10-17T08:43:35.277Z,4.32
2022-10-17T08:44:44.098Z,4.32
2022-10-17T08:46:00.667Z,4.62
2022-10-17T08:47:10.485Z,4.12
2022-10-17T08:48:18.232Z,3.80
2022-10-17T08:49:48.107Z,4.80
2022-10-17T08:50:54.030Z,4.60
2022-10-17T08:52:07.575Z,5.07
2022-10-17T08:53:45.503Z,4.93
2022-10-17T08:54:49.387Z,4.55
2022-10-17T08:55:54.852Z,4.85
2022-10-17T08:56:57.886Z,4.70
2022-10-17T08:58:00.929Z,5.28
2022-10-17T08:59:11.017Z,4.55
2022-10-17T09:00:19.560Z,4.87
2022-10-17T09:01:45.979Z,5.28
2022-10-17T09:03:27.222Z,4.07
2022-10-17T09:04:49.622Z,4.62
2022-10-17T09:06:11.631Z,4.97
2022-10-17T09:07:27.935Z,4.55
2022-10-17T09:08:45.299Z,4.75
2022-10-17T09:09:53.850Z,4.75
2022-10-17T09:11:47.405Z,4.30
2022-10-17T09:12:53.012Z,4.75
2022-10-17T09:14:07.992Z,4.60
2022-10-17T09:15:13.792Z,4.90
2022-10-17T09:16:31.368Z,4.50
2022-10-17T09:17:52.822Z,4.95
2022-10-17T09:19:11.641Z,4.68
2022-10-17T09:20:24.774Z,5.22
2022-10-17T09:21:42.618Z,4.90
2022-10-17T09:22:52.438Z,4.65
2022-10-17T09:24:09.033Z,4.47
2022-10-17T09:25:17.703Z,4.68
2022-10-17T09:26:21.325Z,4.90
2022-10-17T09:28:02.050Z,4.47
2022-10-17T09:29:15.747Z,4.85
2022-10-17T09:30:46.375Z,4.62
2022-10-17T09:31:58.894Z,4.85
2022-10-17T09:33:18.729Z,4.55
2022-10-17T09:34:33.083Z,4.50
2022-10-17T09:35:37.265Z,4.57
2022-10-17T09:36:40.913Z,4.95
2022-10-17T09:37:45.264Z,5.12
2022-10-17T09:38:55.726Z,4.43
2022-10-17T09:39:58.635Z,4.68
2022-10-17T09:41:02.810Z,4.97
2022-10-17T09:42:06.594Z,4.82
2022-10-17T09:43:14.363Z,5.15
2022-10-17T09:44:30.129Z,5.43
2022-10-17T09:45:38.971Z,5.28
2022-10-17T09:46:53.848Z,4.80
2022-10-17T09:48:22.622Z,5.10
2022-10-17T09:49:37.563Z,4.80
2022-10-17T09:50:40.487Z,5.05
2022-10-17T09:51:43.952Z,5.28
2022-10-17T09:52:49.100Z,5.70
2022-10-17T09:53:57.256Z,4.37
2022-10-17T09:55:20.599Z,4.55
2022-10-17T09:56:23.527Z,5.07
2022-10-17T09:57:26.705Z,4.78
2022-10-17T09:59:01.691Z,5.05
2022-10-17T10:00:07.886Z,4.55
2022-10-17T10:01:23.951Z,4.90
2022-10-17T10:02:31.061Z,5.15
2022-10-17T10:03:34.214Z,4.53
2022-10-17T10:04:59.662Z,5.47
2022-10-17T10:06:13.950Z,4.07
2022-10-17T10:07:18.689Z,3.92
2022-10-17T10:08:23.817Z,5.65
2022-10-17T10:09:31.258Z,5.28
2022-10-17T10:10:34.300Z,4.40
2022-10-17T10:11:58.497Z,4.47
2022-10-17T10:13:25.948Z,4.55
2022-10-17T10:14:37.137Z,4.32
2022-10-17T10:15:51.173Z,4.25
2022-10-17T10:16:55.344Z,3.95
2022-10-17T10:18:02.288Z,4.10
2022-10-17T10:19:21.787Z,4.40
2022-10-17T10:20:29.290Z,3.97
2022-10-17T10:21:32.215Z,4.12
2022-10-17T10:22:39.189Z,3.97
2022-10-17T10:24:02.752Z,4.05
2022-10-17T10:25:15.207Z,4.25
2022-10-17T10:26:28.162Z,4.70
2022-10-17T10:28:42.546Z,4.00
2022-10-17T10:29:53.356Z,4.35
2022-10-17T10:30:58.316Z,4.00
2022-10-17T10:32:16.176Z,4.10
2022-10-17T10:33:22.639Z,3.45
2022-10-17T10:34:30.534Z,4.37
2022-10-17T10:35:37.526Z,4.12
2022-10-17T10:36:50.628Z,4.60
2022-10-17T10:37:57.095Z,3.53
2022-10-17T10:39:02.576Z,4.35
2022-10-17T10:40:21.515Z,4.53
2022-10-17T10:41:28.050Z,4.68
2022-10-17T10:42:33.781Z,4.90
2022-10-17T10:43:47.025Z,3.87
2022-10-17T10:44:50.976Z,4.45
2022-10-17T10:45:53.889Z,4.00
2022-10-17T10:47:08.393Z,3.97
2022-10-17T10:48:34.475Z,4.40
2022-10-17T10:49:39.605Z,4.43
2022-10-17T10:51:26.526Z,4.30
2022-10-17T10:52:41.800Z,4.45
2022-10-17T10:53:54.990Z,4.12
2022-10-17T10:55:11.690Z,3.92
2022-10-17T10:56:30.320Z,4.20
2022-10-17T10:57:36.927Z,4.10
2022-10-17T10:59:09.352Z,4.00
2022-10-17T11:00:21.898Z,4.07
2022-10-17T11:01:42.975Z,3.72
2022-10-17T11:03:11.740Z,4.50
2022-10-17T11:04:40.714Z,4.22
2022-10-17T11:05:59.504Z,4.00
2022-10-17T11:07:25.223Z,4.15
2022-10-17T11:08:41.113Z,3.75
2022-10-17T11:10:00.855Z,4.40
2022-10-17T11:11:19.747Z,4.20
2022-10-17T11:12:28.689Z,4.32
2022-10-17T11:13:54.210Z,4.43
2022-10-17T11:15:08.447Z,4.43
2022-10-17T11:16:32.289Z,4.00
2022-10-17T11:18:04.103Z,4.20
2022-10-17T11:19:40.477Z,4.53
2022-10-17T11:21:34.305Z,4.25
2022-10-17T11:22:48.923Z,3.87
2022-10-17T11:24:23.167Z,4.18
2022-10-17T11:25:34.159Z,4.37
2022-10-17T11:27:01.357Z,4.68
2022-10-17T11:28:21.196Z,4.20
2022-10-17T11:29:29.590Z,4.70
2022-10-17T11:31:57.097Z,4.22
2022-10-17T11:33:03.872Z,3.90
2022-10-17T11:34:19.756Z,4.05
2022-10-17T11:35:28.158Z,4.35
2022-10-17T11:36:35.934Z,3.80
2022-10-17T11:37:48.309Z,4.62
2022-10-17T11:39:09.143Z,4.50
2022-10-17T11:40:33.933Z,4.30
2022-10-17T11:41:53.368Z,3.80
2022-10-17T11:43:02.394Z,4.15
2022-10-17T11:44:13.840Z,4.28
2022-10-17T11:45:20.487Z,3.87
2022-10-17T11:46:26.408Z,4.07
2022-10-17T11:47:37.328Z,4.55
2022-10-17T11:48:51.811Z,3.97
2022-10-17T11:52:04.398Z,3.95
2022-10-17T11:53:14.466Z,3.95
2022-10-17T11:54:34.164Z,4.35
2022-10-17T11:55:40.744Z,4.00
2022-10-17T11:57:06.706Z,5.07
2022-10-17T11:58:42.391Z,4.43
2022-10-17T12:00:00.930Z,4.57
2022-10-17T12:01:21.634Z,4.28
2022-10-17T12:02:46.324Z,4.40
2022-10-17T12:03:54.848Z,4.32
2022-10-17T12:05:02.539Z,3.90
2022-10-17T12:06:27.083Z,3.92
2022-10-17T12:08:00.396Z,4.03
2022-10-17T12:09:42.221Z,4.62
2022-10-17T12:11:05.560Z,4.32
2022-10-17T12:12:08.688Z,4.50
2022-10-17T12:13:29.398Z,4.03
2022-10-17T12:14:45.987Z,4.12
2022-10-17T12:15:48.798Z,4.07
2022-10-17T12:16:52.054Z,3.92
2022-10-17T12:17:59.370Z,4.05
2022-10-17T12:19:02.579Z,3.62
2022-10-17T12:20:37.385Z,3.83
2022-10-17T12:22:26.608Z,4.07
2022-10-17T12:23:31.326Z,4.07
2022-10-17T12:24:43.640Z,3.75
2022-10-17T12:25:54.226Z,3.80
2022-10-17T12:27:19.002Z,4.15
2022-10-17T12:28:46.106Z,4.07
2022-10-17T12:29:49.785Z,4.30
2022-10-17T12:30:59.829Z,3.67
2022-10-17T12:32:13.262Z,3.80
2022-10-17T12:33:22.851Z,4.20
2022-10-17T12:34:25.816Z,3.87
2022-10-17T12:35:30.786Z,3.97
2022-10-17T12:36:33.994Z,4.00
2022-10-17T12:37:49.395Z,3.65
2022-10-17T12:39:14.906Z,3.35
2022-10-17T12:40:48.497Z,3.70
2022-10-17T12:41:51.878Z,3.80
2022-10-17T12:42:54.818Z,3.50
2022-10-17T12:43:57.764Z,3.62
2022-10-17T12:45:00.914Z,4.12
2022-10-17T12:46:05.069Z,4.00
2022-10-17T12:47:10.896Z,3.95
2022-10-17T12:48:34.035Z,4.00
2022-10-17T12:49:51.067Z,3.67
2022-10-17T12:52:37.001Z,3.30
2022-10-17T12:53:55.052Z,3.92
2022-10-17T12:55:13.925Z,3.42
2022-10-17T12:56:21.394Z,3.55
2022-10-17T12:57:40.530Z,3.67
2022-10-17T12:58:51.583Z,3.70
2022-10-17T12:59:57.904Z,3.00
2022-10-17T13:01:23.166Z,4.00
2022-10-17T13:02:28.274Z,3.12
2022-10-17T13:03:34.253Z,3.40
2022-10-17T13:04:37.406Z,3.75
2022-10-17T13:05:45.732Z,3.40
2022-10-17T13:06:54.433Z,3.25
2022-10-17T13:07:59.975Z,3.17
2022-10-17T13:09:08.012Z,3.00
2022-10-17T13:10:23.607Z,3.53
2022-10-17T13:11:30.618Z,3.58
2022-10-17T13:12:41.134Z,3.22
2022-10-17T13:13:54.523Z,3.10
2022-10-17T13:15:01.389Z,3.37
2022-10-17T13:16:04.839Z,3.30
2022-10-17T13:17:20.759Z,3.58
2022-10-17T13:18:27.860Z,3.45
2022-10-17T13:19:51.134Z,3.08
2022-10-17T13:21:14.739Z,3.42
2022-10-17T13:22:19.513Z,3.75
2022-10-17T13:23:26.620Z,3.47
2022-10-17T13:24:36.816Z,3.80
2022-10-17T13:25:39.738Z,3.75
2022-10-17T13:26:46.720Z,3.80
2022-10-17T13:27:50.847Z,3.60
2022-10-17T13:29:11.868Z,3.67
2022-10-17T13:30:32.447Z,3.42
2022-10-17T13:31:41.272Z,3.37
2022-10-17T13:32:45.386Z,3.40
2022-10-17T13:33:48.278Z,2.97
2022-10-17T13:35:17.519Z,3.75
2022-10-17T13:36:20.468Z,3.78
2022-10-17T13:37:23.562Z,3.65
2022-10-17T13:38:33.410Z,3.55
2022-10-17T13:40:00.208Z,3.42
2022-10-17T13:41:33.582Z,3.80
2022-10-17T13:42:38.624Z,3.75
2022-10-17T13:43:42.141Z,3.87
2022-10-17T13:44:46.226Z,3.67
2022-10-17T13:46:13.709Z,3.58
2022-10-17T13:47:31.018Z,3.40
2022-10-17T13:48:38.260Z,3.60
2022-10-17T13:49:44.490Z,3.28
2022-10-17T13:50:51.046Z,3.90
2022-10-17T13:51:55.523Z,3.30
2022-10-17T13:53:27.573Z,3.22
2022-10-17T13:54:33.019Z,3.20
2022-10-17T13:55:35.821Z,3.40
2022-10-17T13:56:39.038Z,3.45
2022-10-17T13:57:42.102Z,3.30
2022-10-17T13:58:50.905Z,3.80
2022-10-17T14:00:01.907Z,3.80
2022-10-17T14:02:34.377Z,3.65
2022-10-17T14:03:48.206Z,3.65
2022-10-17T14:05:23.117Z,3.72
2022-10-17T14:06:28.462Z,3.72
2022-10-17T14:08:05.511Z,3.47
2022-10-17T14:09:05.806Z,3.03
2022-10-17T14:10:37.203Z,3.65
2022-10-17T14:11:42.906Z,3.70
2022-10-17T14:12:50.309Z,3.58
2022-10-17T14:13:56.676Z,3.37
2022-10-17T14:15:13.797Z,3.53
2022-10-17T14:16:18.428Z,3.50
2022-10-17T14:17:30.505Z,3.30
2022-10-17T14:18:37.830Z,3.20
2022-10-17T14:19:40.786Z,4.07
2022-10-17T14:21:29.124Z,3.50
2022-10-17T14:22:23.804Z,3.30
2022-10-17T14:23:45.177Z,3.30
2022-10-17T14:24:53.630Z,3.40
2022-10-17T14:26:21.472Z,3.95
2022-10-17T14:27:38.501Z,3.53
2022-10-17T14:29:23.795Z,3.75
2022-10-17T14:30:51.711Z,3.80
2022-10-17T14:31:50.990Z,3.58
2022-10-17T14:33:03.688Z,3.40
2022-10-17T14:34:06.514Z,3.17
2022-10-17T14:35:40.349Z,3.12
2022-10-17T14:36:44.716Z,3.53
2022-10-17T14:37:50.792Z,3.47
2022-10-17T14:38:54.051Z,3.30
2022-10-17T14:40:00.225Z,3.25
2022-10-17T14:42:41.679Z,3.83
2022-10-17T14:43:44.902Z,3.55
2022-10-17T14:44:52.633Z,3.85
2022-10-17T14:46:03.075Z,3.80
2022-10-17T14:47:38.077Z,3.78
2022-10-17T14:48:33.116Z,3.35
2022-10-17T14:49:41.137Z,3.35
2022-10-17T14:51:09.588Z,3.67
2022-10-17T14:52:29.007Z,4.43
2022-10-17T14:53:32.180Z,3.90
2022-10-17T14:54:36.572Z,3.92
2022-10-17T14:55:56.746Z,4.50
2022-10-17T14:56:59.742Z,3.70
2022-10-17T14:58:22.674Z,4.10
2022-10-17T14:59:52.104Z,4.03
2022-10-17T15:00:48.956Z,3.55
2022-10-17T15:01:52.236Z,4.18
2022-10-17T15:02:56.479Z,3.75
2022-10-17T15:03:59.461Z,3.70
2022-10-17T15:05:02.235Z,3.85
2022-10-17T15:06:23.112Z,3.95
2022-10-17T15:07:26.078Z,4.05
2022-10-17T15:08:29.531Z,3.40
2022-10-17T15:09:32.943Z,4.00
2022-10-17T15:10:37.938Z,3.47
2022-10-17T15:11:41.200Z,3.87
2022-10-17T15:12:52.031Z,3.47
2022-10-17T15:14:01.799Z,3.87
2022-10-17T15:15:05.084Z,3.40
2022-10-17T15:16:21.947Z,3.58
2022-10-17T15:17:28.237Z,4.07
2022-10-17T15:18:32.722Z,3.60
2022-10-17T15:19:35.568Z,3.97
2022-10-17T15:20:43.252Z,3.53
2022-10-17T15:21:47.227Z,3.75
2022-10-17T15:22:50.428Z,3.58
2022-10-17T15:23:53.398Z,3.30
2022-10-17T15:24:56.415Z,3.62
2022-10-17T15:25:59.264Z,3.55
2022-10-17T15:27:02.593Z,3.30
2022-10-17T15:28:05.662Z,4.25
2022-10-17T15:29:14.937Z,3.83